Time;durP1;ratioP1;P1;durP2;ratioP2;P2;SDS_P1;SDS_P2;PMS_P1;PMS_P2;Temp;Humidity;BMP_temperature;BMP_pressure;BME280_temperature;BME280_humidity;BME280_pressure;Samples;Min_cycle;Max_cycle;Signal;HPM_P1;HPM_P2
2022/03/27 00:00:13;;;;;;;31.48;16.90;;;;;;;5.52;85.83;103287.44;2063202;28;43192;-72
2022/03/27 00:01:15;;;;;;;30.77;17.20;;;;;;;5.51;85.58;103285.63;2063484;28;43978;-73
2022/03/27 00:02:18;;;;;;;31.90;17.77;;;;;;;5.51;86.64;103284.75;2072068;28;28093;-73
2022/03/27 00:03:20;;;;;;;30.15;16.17;;;;;;;5.50;85.70;103281.16;2071961;28;45857;-73
2022/03/27 00:04:21;;;;;;;28.40;15.13;;;;;;;5.51;85.17;103282.97;2071885;28;46168;-73
2022/03/27 00:05:23;;;;;;;26.15;14.88;;;;;;;5.50;85.07;103283.81;2071774;28;42785;-73
2022/03/27 00:06:25;;;;;;;31.40;16.20;;;;;;;5.50;85.19;103277.59;2071805;28;43869;-72
2022/03/27 00:07:27;;;;;;;22.48;14.05;;;;;;;5.50;86.13;103277.59;2071822;28;44606;-73
2022/03/27 00:08:29;;;;;;;34.80;16.85;;;;;;;5.50;85.51;103280.25;2071509;28;44466;-72
2022/03/27 00:09:31;;;;;;;27.25;16.20;;;;;;;5.50;86.31;103280.25;2071820;28;44321;-72
2022/03/27 00:11:23;;;;;;;29.73;14.85;;;;;;;5.50;85.03;103277.59;2071101;28;44481;-71
2022/03/27 00:11:54;;;;;;;28.77;15.25;;;;;;;5.49;86.24;103281.09;2071278;28;45211;-72
2022/03/27 00:12:56;;;;;;;28.92;15.50;;;;;;;5.49;86.61;103276.72;2071418;28;44416;-72
2022/03/27 00:14:07;;;;;;;28.35;14.30;;;;;;;5.51;85.62;103282.09;2072003;28;43906;-73
2022/03/27 00:15:09;;;;;;;31.10;15.13;;;;;;;5.54;86.85;103279.50;2071006;28;46072;-72
2022/03/27 00:16:11;;;;;;;24.85;13.48;;;;;;;5.51;85.90;103280.31;2071809;28;42300;-73
2022/03/27 00:17:12;;;;;;;26.45;13.32;;;;;;;5.49;85.57;103270.47;2071539;28;44687;-73
2022/03/27 00:18:14;;;;;;;24.55;13.07;;;;;;;5.49;85.57;103273.13;2071784;28;46272;-73
2022/03/27 00:19:16;;;;;;;30.08;14.82;;;;;;;5.49;85.11;103273.13;2071472;28;45170;-72
2022/03/27 00:20:17;;;;;;;26.65;15.30;;;;;;;5.49;85.52;103275.78;2071672;28;45964;-72
2022/03/27 00:21:22;;;;;;;24.50;13.40;;;;;;;5.51;86.42;103280.31;2071509;28;43149;-73
2022/03/27 00:22:24;;;;;;;23.63;13.68;;;;;;;5.48;85.18;103274.00;2062538;28;44228;-73
2022/03/27 00:23:26;;;;;;;35.17;13.77;;;;;;;5.47;85.98;103269.53;2063346;28;46855;-73
2022/03/27 00:24:27;;;;;;;26.67;13.32;;;;;;;5.48;85.61;103274.88;2071310;28;45062;-73
2022/03/27 00:25:29;;;;;;;26.63;14.93;;;;;;;5.47;85.61;103273.09;2076991;28;20042;-71
2022/03/27 00:26:31;;;;;;;27.45;14.88;;;;;;;5.49;86.29;103278.44;2079399;28;44416;-72
2022/03/27 00:27:34;;;;;;;24.48;15.10;;;;;;;5.50;85.38;103272.28;2071444;28;20039;-73
2022/03/27 00:28:42;;;;;;;27.88;13.48;;;;;;;5.49;85.60;103265.16;2063734;28;40678;-73
2022/03/27 00:29:43;;;;;;;25.48;11.82;;;;;;;5.48;85.40;103272.22;2070774;28;43069;-73
2022/03/27 00:30:45;;;;;;;28.55;14.05;;;;;;;5.50;86.29;103274.94;2079069;28;45193;-73
2022/03/27 00:31:48;;;;;;;28.92;14.48;;;;;;;5.49;85.31;103270.47;2079668;28;42999;-72
2022/03/27 00:32:49;;;;;;;23.80;12.63;;;;;;;5.50;86.50;103262.56;2079782;28;43391;-73
2022/03/27 00:33:51;;;;;;;29.45;13.68;;;;;;;5.50;86.31;103270.53;2079684;28;46113;-72
2022/03/27 00:34:55;;;;;;;23.58;13.07;;;;;;;5.49;85.42;103275.78;2080886;28;20037;-73
2022/03/27 00:36:02;;;;;;;25.45;13.95;;;;;;;5.50;86.03;103265.22;2079809;28;44786;-73
2022/03/27 00:37:04;;;;;;;28.10;13.60;;;;;;;5.51;85.37;103274.13;2079967;28;44557;-73
2022/03/27 00:38:07;;;;;;;26.50;13.40;;;;;;;5.49;85.07;103268.75;2079635;28;43909;-73
2022/03/27 00:39:09;;;;;;;23.15;11.95;;;;;;;5.50;85.14;103272.28;2079471;28;46626;-73
2022/03/27 00:40:14;;;;;;;25.10;12.23;;;;;;;5.48;85.40;103264.25;2079320;28;44581;-73
2022/03/27 00:41:16;;;;;;;27.10;13.18;;;;;;;5.50;85.68;103259.00;2079596;28;43081;-73
2022/03/27 00:42:19;;;;;;;25.27;13.32;;;;;;;5.50;85.68;103261.66;2079278;28;46170;-73
2022/03/27 00:43:22;;;;;;;27.10;14.18;;;;;;;5.52;86.71;103262.63;2079892;28;45515;-73
2022/03/27 00:44:24;;;;;;;25.80;13.38;;;;;;;5.52;85.84;103266.16;2079510;28;46077;-73
2022/03/27 00:45:26;;;;;;;25.63;12.70;;;;;;;5.50;85.09;103259.91;2080324;28;21012;-73
2022/03/27 00:46:28;;;;;;;31.85;13.27;;;;;;;5.53;85.88;103261.78;2079344;28;43527;-72
2022/03/27 00:47:29;;;;;;;26.90;12.00;;;;;;;5.51;86.04;103264.38;2079360;28;46112;-72
2022/03/27 00:48:31;;;;;;;24.73;12.90;;;;;;;5.51;85.68;103264.38;2079203;28;45675;-72
2022/03/27 00:49:34;;;;;;;23.40;12.57;;;;;;;5.53;86.38;103259.13;2079155;28;45136;-72
2022/03/27 00:50:36;;;;;;;26.13;11.80;;;;;;;5.52;85.87;103260.84;2079087;28;43928;-72
2022/03/27 00:51:37;;;;;;;24.20;11.90;;;;;;;5.52;84.94;103250.22;2078598;28;45196;-72
2022/03/27 00:52:39;;;;;;;22.38;11.82;;;;;;;5.53;85.73;103259.13;2079789;28;44444;-73
2022/03/27 00:53:42;;;;;;;22.52;11.57;;;;;;;5.53;85.04;103260.03;2079751;28;37149;-73
2022/03/27 00:54:43;;;;;;;28.58;12.25;;;;;;;5.55;85.90;103253.00;2079154;28;46805;-72
2022/03/27 00:55:45;;;;;;;27.35;11.93;;;;;;;5.56;85.73;103256.56;2079337;28;44687;-72
2022/03/27 00:56:47;;;;;;;18.98;10.90;;;;;;;5.57;85.94;103258.38;2079875;28;33642;-72
2022/03/27 00:57:49;;;;;;;22.30;10.93;;;;;;;5.57;86.14;103255.72;2079245;28;45695;-73
2022/03/27 00:58:50;;;;;;;25.25;12.52;;;;;;;5.60;85.85;103249.59;2080485;28;45145;-73
2022/03/27 00:59:55;;;;;;;23.15;12.02;;;;;;;5.60;85.28;103253.19;2080537;28;20155;-73
2022/03/27 01:01:24;;;;;;;23.40;11.57;;;;;;;5.61;85.68;103251.41;2079433;28;44470;-73
2022/03/27 01:02:26;;;;;;;24.20;10.32;;;;;;;5.60;85.80;103252.25;2079917;28;34221;-73
2022/03/27 01:03:28;;;;;;;23.17;9.75;;;;;;;5.61;85.09;103254.97;2079229;28;45463;-73
2022/03/27 01:04:30;;;;;;;20.98;9.68;;;;;;;5.62;84.71;103256.78;2079666;28;44923;-73
2022/03/27 01:05:32;;;;;;;21.77;10.68;;;;;;;5.61;85.51;103244.34;2079501;28;45312;-73
2022/03/27 01:06:39;;;;;;;21.77;10.60;;;;;;;5.63;85.69;103245.28;2079205;28;45860;-73
2022/03/27 01:07:41;;;;;;;22.75;10.13;;;;;;;5.65;84.93;103246.28;2079508;28;43885;-73
2022/03/27 01:10:03;;;;;;;19.70;9.85;;;;;;;5.67;86.01;103244.56;2079180;28;45634;-72
2022/03/27 01:11:18;;;;;;;29.08;11.55;;;;;;;5.67;85.46;103243.63;2078672;28;45647;-73
2022/03/27 01:12:23;;;;;;;24.65;11.13;;;;;;;5.67;85.84;103244.56;2078861;28;44593;-72
2022/03/27 01:13:25;;;;;;;23.95;10.45;;;;;;;5.67;86.22;103244.56;2079545;28;45077;-73
2022/03/27 01:14:32;;;;;;;19.73;9.70;;;;;;;5.67;85.10;103238.31;2079314;28;44323;-72
2022/03/27 01:15:43;;;;;;;23.30;9.07;;;;;;;5.68;85.24;103241.03;2079416;28;43069;-73
2022/03/27 01:16:57;;;;;;;23.15;10.15;;;;;;;5.68;85.19;103240.16;2079507;28;26272;-72
2022/03/27 01:17:59;;;;;;;22.55;9.25;;;;;;;5.68;85.88;103241.03;2078648;28;46149;-73
2022/03/27 01:19:01;;;;;;;25.40;9.75;;;;;;;5.68;85.48;103240.16;2078692;28;44213;-72
2022/03/27 01:20:04;;;;;;;19.67;9.73;;;;;;;5.67;84.84;103240.97;2070324;28;46404;-73
2022/03/27 01:21:08;;;;;;;26.20;10.40;;;;;;;5.68;86.30;103240.16;2070954;28;44589;-73
2022/03/27 01:22:11;;;;;;;24.40;9.57;;;;;;;5.69;85.66;103232.22;2078433;28;47068;-73
2022/03/27 01:23:16;;;;;;;21.08;9.38;;;;;;;5.69;85.16;103242.88;2078647;28;45534;-73
2022/03/27 01:24:18;;;;;;;23.73;10.02;;;;;;;5.69;85.27;103242.88;2079458;28;42459;-73
2022/03/27 01:25:19;;;;;;;23.27;9.32;;;;;;;5.68;86.04;103241.03;2078987;28;45779;-73
2022/03/27 01:26:23;;;;;;;21.27;7.50;;;;;;;5.70;85.89;103235.78;2079273;28;46056;-73
2022/03/27 01:27:25;;;;;;;22.27;9.40;;;;;;;5.70;86.21;103239.34;2079076;28;38865;-73
2022/03/27 01:28:26;;;;;;;21.65;9.48;;;;;;;5.70;85.91;103239.34;2079078;28;46457;-73
2022/03/27 01:29:28;;;;;;;22.20;9.90;;;;;;;5.70;84.89;103242.00;2079218;28;41945;-73
2022/03/27 01:30:32;;;;;;;23.45;9.60;;;;;;;5.70;85.16;103239.34;2079368;28;39758;-73
2022/03/27 01:31:35;;;;;;;21.30;8.98;;;;;;;5.71;85.13;103243.81;2078702;28;46551;-73
2022/03/27 01:32:37;;;;;;;18.63;8.52;;;;;;;5.71;84.71;103240.25;2078976;28;45741;-73
2022/03/27 01:33:39;;;;;;;25.92;9.85;;;;;;;5.72;85.97;103248.28;2079298;28;46223;-73
2022/03/27 01:34:44;;;;;;;21.83;9.52;;;;;;;5.72;85.05;103242.97;2078399;28;45531;-73
2022/03/27 01:35:46;;;;;;;25.58;9.35;;;;;;;5.72;85.59;103242.97;2078875;28;41167;-73
2022/03/27 01:36:49;;;;;;;26.33;9.60;;;;;;;5.71;84.69;103241.16;2078993;28;46170;-73
2022/03/27 01:37:51;;;;;;;22.58;9.70;;;;;;;5.73;86.31;103243.88;2079289;28;46826;-73
2022/03/27 01:38:56;;;;;;;27.42;9.43;;;;;;;5.72;85.01;103235.00;2079479;28;46628;-72
2022/03/27 01:39:57;;;;;;;21.15;8.85;;;;;;;5.72;85.08;103240.31;2079589;28;42107;-73
2022/03/27 01:40:59;;;;;;;25.92;9.60;;;;;;;5.72;86.05;103240.31;2078634;28;41240;-73
2022/03/27 01:42:01;;;;;;;18.25;8.57;;;;;;;5.73;85.54;103242.09;2079032;28;46220;-73
2022/03/27 01:43:02;;;;;;;26.13;10.15;;;;;;;5.72;85.65;103236.72;2079328;28;43761;-73
2022/03/27 01:44:13;;;;;;;27.30;9.90;;;;;;;5.71;86.14;103242.91;2079248;28;44793;-73
2022/03/27 01:45:14;;;;;;;;;;;;;;;5.71;86.13;103235.84;2079949;28;44480;-73
2022/03/27 01:46:16;;;;;;;29.55;9.52;;;;;;;5.71;85.00;103234.94;2079751;28;34545;-73
2022/03/27 01:47:18;;;;;;;24.27;9.00;;;;;;;5.72;85.98;103228.75;2078818;28;46382;-73
2022/03/27 01:48:19;;;;;;;22.23;8.70;;;;;;;5.72;84.89;103227.03;2079441;28;44601;-73
2022/03/27 01:49:22;;;;;;;25.05;9.15;;;;;;;5.72;85.48;103234.06;2079231;28;36998;-73
2022/03/27 01:50:25;;;;;;;26.52;9.27;;;;;;;5.71;85.80;103230.53;2078714;28;45649;-73
2022/03/27 01:51:28;;;;;;;23.20;9.35;;;;;;;5.73;84.92;103230.56;2078643;28;45874;-73
2022/03/27 01:52:29;;;;;;;23.77;9.70;;;;;;;5.74;85.30;103230.63;2078472;28;46769;-73
2022/03/27 01:53:32;;;;;;;16.90;8.95;;;;;;;5.76;85.37;103233.34;2079055;28;44438;-73
2022/03/27 01:54:34;;;;;;;26.02;8.00;;;;;;;5.73;84.76;103231.47;2079107;28;40884;-73
2022/03/27 01:55:35;;;;;;;22.27;7.85;;;;;;;5.74;85.47;103227.06;2078968;28;43417;-73
2022/03/27 01:56:38;;;;;;;21.02;7.05;;;;;;;5.74;85.86;103232.38;2078870;28;45608;-73
2022/03/27 01:57:41;;;;;;;20.83;8.77;;;;;;;5.73;85.84;103228.81;2079579;28;34290;-73
2022/03/27 01:58:43;;;;;;;22.45;7.90;;;;;;;5.74;85.16;103229.72;2078623;28;43342;-72
2022/03/27 01:59:45;;;;;;;21.33;6.88;;;;;;;5.77;84.83;103226.28;2079014;28;45586;-73
2022/03/27 02:00:47;;;;;;;24.75;7.72;;;;;;;5.75;84.57;103239.50;2078862;28;45491;-73
2022/03/27 02:01:52;;;;;;;22.63;8.18;;;;;;;5.75;85.22;103228.88;2077927;28;45291;-73
2022/03/27 02:02:53;;;;;;;21.67;7.32;;;;;;;5.75;84.81;103239.50;2078604;28;45424;-73
2022/03/27 02:03:55;;;;;;;26.65;7.57;;;;;;;5.76;84.68;103233.34;2079283;28;44622;-71
2022/03/27 02:04:57;;;;;;;25.50;7.53;;;;;;;5.77;85.81;103245.78;2079366;28;45528;-73
2022/03/27 02:06:00;;;;;;;24.10;7.00;;;;;;;5.77;85.52;103239.56;2078950;28;41431;-73
2022/03/27 02:07:02;;;;;;;29.85;7.70;;;;;;;5.77;85.48;103237.81;2079387;28;46060;-73
2022/03/27 02:08:04;;;;;;;26.27;6.38;;;;;;;5.78;85.47;103234.31;2079012;28;43992;-73
2022/03/27 02:09:25;;;;;;;25.27;7.45;;;;;;;5.78;85.57;103236.97;2080249;28;20175;-73
2022/03/27 02:10:27;;;;;;;27.48;7.20;;;;;;;5.79;84.65;103230.78;2078683;28;44269;-73
2022/03/27 02:11:29;;;;;;;27.33;6.85;;;;;;;5.79;84.45;103233.44;2079007;28;44221;-72
2022/03/27 02:12:34;;;;;;;27.00;7.60;;;;;;;5.79;85.08;103230.78;2078849;28;44617;-73
2022/03/27 02:13:37;;;;;;;21.95;5.65;;;;;;;5.81;84.35;103241.47;2079139;28;45461;-72
2022/03/27 02:14:39;;;;;;;24.95;6.78;;;;;;;5.81;84.81;103231.72;2078023;28;35738;-73
2022/03/27 02:15:41;;;;;;;28.95;8.40;;;;;;;5.80;85.19;103229.94;2078150;28;45272;-73
2022/03/27 02:16:43;;;;;;;26.08;6.93;;;;;;;5.81;85.55;103233.50;2078894;28;46598;-73
2022/03/27 02:17:45;;;;;;;26.15;7.80;;;;;;;5.81;85.62;103222.84;2079223;28;44577;-71
2022/03/27 02:18:50;;;;;;;28.70;7.45;;;;;;;5.82;84.97;103220.25;2079563;28;20169;-73
2022/03/27 02:19:52;;;;;;;19.63;7.00;;;;;;;5.79;84.70;103219.25;2078259;28;45695;-73
2022/03/27 02:20:54;;;;;;;27.50;7.60;;;;;;;5.78;85.95;103218.34;2078754;28;45143;-74
2022/03/27 02:21:56;;;;;;;23.83;7.30;;;;;;;5.80;85.75;103219.31;2078603;28;47158;-73
2022/03/27 02:22:57;;;;;;;25.15;6.53;;;;;;;5.81;84.75;103222.84;2078609;28;45926;-71
2022/03/27 02:23:59;;;;;;;31.10;8.90;;;;;;;5.79;85.78;103222.78;2078773;28;44138;-73
2022/03/27 02:25:01;;;;;;;27.38;7.90;;;;;;;5.78;86.16;103225.41;2078433;28;46684;-71
2022/03/27 02:26:05;;;;;;;29.00;7.68;;;;;;;5.78;85.28;103228.97;2078458;28;39421;-74
2022/03/27 02:27:07;;;;;;;27.85;7.75;;;;;;;5.78;85.30;103222.75;2078655;28;46223;-73
2022/03/27 02:28:09;;;;;;;28.55;8.25;;;;;;;5.78;86.24;103228.97;2078800;28;43161;-72
2022/03/27 02:29:14;;;;;;;23.17;6.75;;;;;;;5.78;85.16;103226.31;2079170;28;45281;-73
2022/03/27 02:30:18;;;;;;;28.50;7.07;;;;;;;5.77;85.41;103223.63;2078784;28;47122;-71
2022/03/27 02:31:19;;;;;;;23.95;6.78;;;;;;;5.77;85.89;103226.28;2079100;28;37733;-73
2022/03/27 02:32:21;;;;;;;27.00;6.63;;;;;;;5.76;85.42;103228.03;2079250;28;44162;-73
2022/03/27 02:33:24;;;;;;;26.40;6.40;;;;;;;5.75;85.18;103231.53;2078289;28;43495;-73
2022/03/27 02:34:26;;;;;;;34.90;7.00;;;;;;;5.77;85.67;103228.94;2079269;28;45244;-73
2022/03/27 02:35:28;;;;;;;34.22;7.13;;;;;;;5.75;84.56;103231.53;2078723;28;44030;-73
2022/03/27 02:36:29;;;;;;;36.13;6.43;;;;;;;5.77;84.62;103228.94;2079087;28;44864;-73
2022/03/27 02:37:31;;;;;;;34.15;7.10;;;;;;;5.78;85.41;103233.38;2078871;28;44408;-73
2022/03/27 02:38:34;;;;;;;38.88;7.43;;;;;;;5.76;85.79;103225.38;2079138;28;44807;-73
2022/03/27 02:39:35;;;;;;;29.58;6.20;;;;;;;5.78;85.59;103230.72;2078904;28;46344;-73
2022/03/27 02:40:39;;;;;;;29.98;6.38;;;;;;;5.76;84.69;103222.72;2079927;28;20866;-73
2022/03/27 02:41:43;;;;;;;24.55;6.32;;;;;;;5.76;85.44;103230.69;2078754;28;43214;-73
2022/03/27 02:42:45;;;;;;;33.13;6.53;;;;;;;5.73;84.68;103226.16;2079156;28;45648;-73
2022/03/27 02:43:46;;;;;;;33.30;7.32;;;;;;;5.74;85.25;103220.00;2078981;28;41596;-71
2022/03/27 02:44:48;;;;;;;28.50;6.55;;;;;;;5.75;84.76;103215.59;2078978;28;45165;-73
2022/03/27 02:45:50;;;;;;;25.85;6.65;;;;;;;5.77;85.33;103223.63;2079086;28;34763;-73
2022/03/27 02:46:52;;;;;;;31.67;6.63;;;;;;;5.78;84.74;103214.75;2079160;28;44695;-73
2022/03/27 02:47:57;;;;;;;37.78;7.05;;;;;;;5.77;85.52;103215.63;2077870;28;45774;-73
2022/03/27 02:48:59;;;;;;;23.27;5.80;;;;;;;5.78;84.17;103214.75;2078404;28;43318;-73
2022/03/27 02:50:04;;;;;;;28.42;6.38;;;;;;;5.79;85.51;103224.56;2078803;28;43750;-73
2022/03/27 02:51:06;;;;;;;27.02;6.70;;;;;;;5.78;84.82;103217.44;2078512;28;47777;-73
2022/03/27 02:52:08;;;;;;;26.83;6.30;;;;;;;5.79;85.13;103219.25;2078873;28;43399;-73
2022/03/27 02:53:11;;;;;;;27.20;6.35;;;;;;;5.80;85.38;103219.31;2078777;28;44090;-73
2022/03/27 02:54:13;;;;;;;33.60;7.03;;;;;;;5.79;85.44;103216.59;2078630;28;46225;-73
2022/03/27 02:55:15;;;;;;;38.17;7.03;;;;;;;5.79;85.70;103220.13;2079200;28;42019;-73
2022/03/27 02:56:17;;;;;;;37.13;7.85;;;;;;;5.80;84.53;103215.75;2078303;28;45981;-73
2022/03/27 02:57:21;;;;;;;37.42;7.93;;;;;;;5.79;85.82;103213.94;2079042;28;45675;-73
2022/03/27 02:58:23;;;;;;;33.20;7.70;;;;;;;5.80;85.82;103223.72;2078594;28;44298;-72
2022/03/27 02:59:25;;;;;;;28.88;7.15;;;;;;;5.81;85.08;103217.53;2078035;28;46189;-72
2022/03/27 03:00:27;;;;;;;26.70;6.53;;;;;;;5.81;84.95;103215.78;2078115;28;42012;-73
2022/03/27 03:01:28;;;;;;;31.73;7.57;;;;;;;5.82;85.67;103222.91;2079033;28;35052;-73
2022/03/27 03:02:31;;;;;;;32.30;7.30;;;;;;;5.82;85.19;103214.94;2078088;28;47169;-73
2022/03/27 03:03:33;;;;;;;37.33;7.00;;;;;;;5.80;85.74;103221.06;2078500;28;45462;-74
2022/03/27 03:04:35;;;;;;;30.70;7.13;;;;;;;5.80;85.16;103224.63;2078507;28;44926;-73
2022/03/27 03:05:41;;;;;;;34.42;7.28;;;;;;;5.81;85.52;103228.16;2079021;28;44618;-73
2022/03/27 03:06:43;;;;;;;31.17;6.80;;;;;;;5.82;85.62;103219.34;2078379;28;45896;-73
2022/03/27 03:07:45;;;;;;;25.83;6.47;;;;;;;5.83;84.90;103223.81;2078726;28;44676;-72
2022/03/27 03:08:46;;;;;;;29.90;7.30;;;;;;;5.82;85.04;103227.34;2078815;28;45414;-73
2022/03/27 03:09:48;;;;;;;31.13;7.22;;;;;;;5.80;85.07;103221.97;2078992;28;45727;-72
2022/03/27 03:10:50;;;;;;;35.88;7.65;;;;;;;5.79;85.84;103232.53;2078268;28;44631;-72
2022/03/27 03:11:52;;;;;;;36.53;7.30;;;;;;;5.79;85.20;103229.88;2080281;28;42915;-72
2022/03/27 03:12:54;;;;;;;38.28;7.95;;;;;;;5.79;85.10;103236.09;2080343;28;45558;-73
2022/03/27 03:13:56;;;;;;;33.40;7.30;;;;;;;5.78;84.84;103236.97;2081014;28;45315;-73
2022/03/27 03:15:20;;;;;;;33.50;6.38;;;;;;;5.74;84.74;103238.59;2081066;28;20055;-73
2022/03/27 03:16:24;;;;;;;38.97;7.72;;;;;;;5.73;85.67;103236.78;2080323;28;45991;-73
2022/03/27 03:17:27;;;;;;;34.60;7.38;;;;;;;5.75;84.89;103234.19;2079373;28;46807;-73
2022/03/27 03:18:32;;;;;;;35.60;7.20;;;;;;;5.74;85.58;103232.38;2079536;28;46390;-73
2022/03/27 03:19:37;;;;;;;34.75;7.15;;;;;;;5.72;85.88;103231.41;2080571;28;20065;-72
2022/03/27 03:20:39;;;;;;;31.70;5.50;;;;;;;5.73;84.70;103230.56;2079725;28;43849;-73
2022/03/27 03:21:42;;;;;;;34.13;6.68;;;;;;;5.71;84.85;103234.94;2080160;28;44597;-72
2022/03/27 03:22:44;;;;;;;36.88;8.38;;;;;;;5.69;85.21;103232.22;2080536;28;31926;-73
2022/03/27 03:23:46;;;;;;;37.60;6.82;;;;;;;5.68;85.91;103233.06;2080360;28;43996;-72
2022/03/27 03:24:47;;;;;;;43.40;7.32;;;;;;;5.69;85.56;103232.22;2080444;28;42970;-73
2022/03/27 03:25:49;;;;;;;41.08;7.00;;;;;;;5.71;85.61;103235.84;2079278;28;45487;-72
2022/03/27 03:27:08;;;;;;;37.05;7.10;;;;;;;5.72;85.48;103236.72;2079941;28;46254;-73
2022/03/27 03:28:10;;;;;;;37.55;6.75;;;;;;;5.73;86.11;103236.78;2071653;28;45497;-73
2022/03/27 03:29:12;;;;;;;30.10;6.07;;;;;;;5.72;85.92;103235.00;2071284;28;46449;-73
2022/03/27 03:30:13;;;;;;;33.85;6.72;;;;;;;5.73;86.08;103244.75;2079866;28;39879;-73
2022/03/27 03:31:15;;;;;;;31.10;6.25;;;;;;;5.74;85.72;103235.94;2080255;28;45267;-71
2022/03/27 03:32:17;;;;;;;33.65;6.63;;;;;;;5.75;84.93;103236.84;2080017;28;45478;-73
2022/03/27 03:33:21;;;;;;;25.15;6.53;;;;;;;5.77;84.83;103236.91;2079754;28;43966;-72
2022/03/27 03:34:23;;;;;;;34.20;6.97;;;;;;;5.76;85.71;103241.31;2079857;28;44213;-73
2022/03/27 03:35:25;;;;;;;35.60;7.80;;;;;;;5.75;85.04;103236.84;2079907;28;43736;-73
2022/03/27 03:36:45;;;;;;;33.47;7.07;;;;;;;5.74;86.10;103238.59;2080275;28;44293;-73
2022/03/27 03:37:47;;;;;;;35.08;7.80;;;;;;;5.76;85.30;103238.66;2080042;28;45129;-73
2022/03/27 03:38:48;;;;;;;40.25;8.48;;;;;;;5.76;85.96;103238.66;2080389;28;40700;-73
2022/03/27 03:39:50;;;;;;;31.17;6.53;;;;;;;5.77;84.69;103239.56;2079630;28;44285;-73
2022/03/27 03:40:51;;;;;;;28.40;6.13;;;;;;;5.77;85.80;103239.56;2080242;28;44316;-73
2022/03/27 03:41:53;;;;;;;34.83;6.72;;;;;;;5.77;85.70;103239.56;2079035;28;45333;-73
2022/03/27 03:42:58;;;;;;;31.25;6.68;;;;;;;5.78;85.81;103241.34;2079391;28;45152;-72
2022/03/27 03:43:59;;;;;;;34.20;7.18;;;;;;;5.73;84.58;103239.44;2079703;28;44519;-72
2022/03/27 03:45:03;;;;;;;33.63;7.05;;;;;;;5.69;85.24;103241.97;2079988;28;45427;-73
2022/03/27 03:46:06;;;;;;;32.78;7.28;;;;;;;5.71;85.18;103230.53;2079521;28;45891;-73
2022/03/27 03:47:08;;;;;;;28.80;7.13;;;;;;;5.71;85.70;103227.88;2079962;28;43351;-73
2022/03/27 03:48:09;;;;;;;36.08;6.35;;;;;;;5.73;84.64;103234.13;2079482;28;44778;-73
2022/03/27 03:49:11;;;;;;;33.35;6.25;;;;;;;5.71;84.46;103230.53;2080195;28;43379;-73
2022/03/27 03:50:13;;;;;;;41.67;8.18;;;;;;;5.69;84.64;103228.69;2079684;28;40334;-72
2022/03/27 03:51:16;;;;;;;35.20;6.90;;;;;;;5.69;84.85;103224.25;2080304;28;45627;-73
2022/03/27 03:52:20;;;;;;;34.33;7.18;;;;;;;5.69;85.28;103224.25;2080192;28;20223;-73
2022/03/27 03:53:22;;;;;;;27.35;5.78;;;;;;;5.70;85.07;103218.06;2079937;28;46319;-72
2022/03/27 03:54:24;;;;;;;25.33;5.50;;;;;;;5.71;85.62;103219.88;2079670;28;44856;-72
2022/03/27 03:55:26;;;;;;;40.15;7.78;;;;;;;5.69;85.60;103221.59;2080116;28;39121;-73
2022/03/27 03:56:28;;;;;;;39.72;6.80;;;;;;;5.71;85.38;103219.88;2079140;28;46928;-73
2022/03/27 03:57:30;;;;;;;29.30;5.80;;;;;;;5.71;85.14;103222.53;2079611;28;45526;-73
2022/03/27 03:58:32;;;;;;;30.10;6.05;;;;;;;5.73;84.72;103214.63;2079647;28;46050;-73
2022/03/27 03:59:36;;;;;;;38.97;6.80;;;;;;;5.73;84.84;103218.19;2080322;28;44022;-73
2022/03/27 04:00:37;;;;;;;34.58;6.90;;;;;;;5.74;84.36;103212.03;2080026;28;45365;-73
2022/03/27 04:01:39;;;;;;;37.97;6.47;;;;;;;5.72;84.62;103211.09;2079552;28;44563;-73
2022/03/27 04:02:41;;;;;;;39.22;6.68;;;;;;;5.72;84.82;103205.75;2080007;28;43371;-73
2022/03/27 04:03:43;;;;;;;35.67;7.07;;;;;;;5.70;84.42;103206.53;2079932;28;45935;-73
2022/03/27 04:04:45;;;;;;;33.38;6.82;;;;;;;5.69;84.98;103208.31;2079369;28;45838;-72
2022/03/27 04:05:47;;;;;;;34.03;6.90;;;;;;;5.68;84.97;103211.81;2079775;28;45053;-73
2022/03/27 04:06:49;;;;;;;42.35;7.43;;;;;;;5.68;85.64;103211.81;2079102;28;45948;-73
2022/03/27 04:07:50;;;;;;;42.10;7.90;;;;;;;5.67;85.26;103211.75;2079791;28;44509;-73
2022/03/27 04:08:52;;;;;;;29.83;6.60;;;;;;;5.67;84.89;103212.69;2070536;28;43887;-72
2022/03/27 04:09:56;;;;;;;34.58;6.80;;;;;;;5.68;86.15;103218.88;2072567;28;20272;-73
2022/03/27 04:11:01;;;;;;;35.40;7.03;;;;;;;5.65;86.01;103214.38;2079493;28;44026;-73
2022/03/27 04:12:03;;;;;;;41.90;7.50;;;;;;;5.66;85.34;103216.16;2079896;28;44238;-72
2022/03/27 04:13:05;;;;;;;37.33;7.15;;;;;;;5.66;84.90;103224.13;2079787;28;44212;-73
2022/03/27 04:14:07;;;;;;;35.13;6.47;;;;;;;5.63;85.14;103205.41;2080124;28;43031;-73
2022/03/27 04:15:09;;;;;;;31.42;6.85;;;;;;;5.65;85.33;103206.41;2079948;28;43485;-73
2022/03/27 04:16:14;;;;;;;36.33;7.28;;;;;;;5.66;85.83;103212.63;2079633;28;44954;-73
2022/03/27 04:17:18;;;;;;;38.80;8.05;;;;;;;5.64;84.90;103207.25;2079848;28;46433;-73
2022/03/27 04:18:20;;;;;;;38.58;7.72;;;;;;;5.64;85.74;103216.97;2079753;28;37708;-72
2022/03/27 04:19:23;;;;;;;38.17;6.78;;;;;;;5.66;86.15;103213.50;2079695;28;45410;-72
2022/03/27 04:20:24;;;;;;;33.47;7.20;;;;;;;5.66;84.83;103212.63;2079707;28;43340;-72
2022/03/27 04:21:26;;;;;;;39.13;7.82;;;;;;;5.63;85.88;103209.84;2079861;28;45269;-73
2022/03/27 04:22:28;;;;;;;43.55;7.85;;;;;;;5.63;85.86;103207.19;2079390;28;45665;-73
2022/03/27 04:23:30;;;;;;;32.40;6.63;;;;;;;5.63;85.36;103216.06;2079441;28;45841;-73
2022/03/27 04:24:32;;;;;;;32.97;6.93;;;;;;;5.63;84.96;103218.72;2080125;28;45334;-73
2022/03/27 04:25:33;;;;;;;40.55;6.75;;;;;;;5.64;85.06;103216.97;2079444;28;46619;-72
2022/03/27 04:26:35;;;;;;;36.22;7.13;;;;;;;5.64;86.13;103209.91;2079662;28;40035;-72
2022/03/27 04:27:38;;;;;;;36.22;7.00;;;;;;;5.66;84.86;103216.16;2079176;28;47211;-72
2022/03/27 04:28:40;;;;;;;39.70;7.45;;;;;;;5.63;84.81;103210.75;2079746;28;43337;-72
2022/03/27 04:29:42;;;;;;;40.15;7.97;;;;;;;5.59;85.11;103208.84;2079402;28;45427;-73
2022/03/27 04:30:43;;;;;;;42.25;8.27;;;;;;;5.62;85.08;103211.59;2079816;28;46201;-72
2022/03/27 04:31:45;;;;;;;35.30;7.35;;;;;;;5.61;86.08;103203.59;2079465;28;43226;-73
2022/03/27 04:32:49;;;;;;;30.38;6.65;;;;;;;5.60;85.64;103202.69;2080958;28;20045;-73
2022/03/27 04:33:51;;;;;;;32.58;6.50;;;;;;;5.60;86.06;103204.41;2079569;28;43437;-73
2022/03/27 04:34:52;;;;;;;37.83;6.75;;;;;;;5.58;85.08;103200.81;2079029;28;42759;-72
2022/03/27 04:35:54;;;;;;;41.13;7.68;;;;;;;5.58;85.66;103203.47;2078678;28;46311;-72
2022/03/27 04:37:00;;;;;;;38.92;7.28;;;;;;;5.55;86.17;103196.31;2079855;28;44432;-73
2022/03/27 04:38:02;;;;;;;37.80;7.50;;;;;;;5.52;85.45;103201.50;2079852;28;31137;-73
2022/03/27 04:39:05;;;;;;;28.70;7.00;;;;;;;5.53;85.47;103190.03;2079870;28;44429;-73
2022/03/27 04:40:09;;;;;;;26.55;6.50;;;;;;;5.54;85.83;103194.47;2079678;28;44123;-72
2022/03/27 04:41:10;;;;;;;32.85;7.32;;;;;;;5.53;84.92;103193.59;2079021;28;46299;-73
2022/03/27 04:42:14;;;;;;;35.65;8.05;;;;;;;5.51;85.41;103200.63;2079408;28;43629;-73
2022/03/27 04:43:18;;;;;;;31.30;6.15;;;;;;;5.52;85.26;103198.84;2079504;28;46722;-73
2022/03/27 04:44:20;;;;;;;36.13;7.70;;;;;;;5.50;86.25;103203.22;2079530;28;46411;-73
2022/03/27 04:45:22;;;;;;;35.50;7.72;;;;;;;5.47;86.16;103206.69;2079598;28;44202;-73
2022/03/27 04:46:26;;;;;;;32.15;7.03;;;;;;;5.47;85.21;103203.09;2080465;28;20937;-72
2022/03/27 04:47:28;;;;;;;42.10;7.80;;;;;;;5.45;86.34;103203.03;2079585;28;45003;-73
2022/03/27 04:48:29;;;;;;;32.33;7.22;;;;;;;5.45;85.69;103207.47;2079346;28;45163;-72
2022/03/27 04:49:31;;;;;;;28.35;6.13;;;;;;;5.44;85.58;103209.22;2079349;28;44821;-72
2022/03/27 04:50:33;;;;;;;29.20;6.10;;;;;;;5.44;85.67;103208.31;2079192;28;44303;-73
2022/03/27 04:51:35;;;;;;;37.90;6.80;;;;;;;5.45;85.69;103207.47;2079421;28;45245;-72
2022/03/27 04:52:37;;;;;;;37.67;6.47;;;;;;;5.46;86.05;103212.81;2079278;28;45626;-72
2022/03/27 04:53:39;;;;;;;34.50;7.38;;;;;;;5.46;85.20;103203.97;2079110;28;44120;-72